Time;durP1;ratioP1;P1;durP2;ratioP2;P2;SDS_P1;SDS_P2;PMS_P1;PMS_P2;Temp;Humidity;BMP_temperature;BMP_pressure;BME280_temperature;BME280_humidity;BME280_pressure;Samples;Min_cycle;Max_cycle;Signal;HPM_P1;HPM_P2
2022/09/14 00:01:20;;;;;;;8.60;7.67;;;;;;;10.70;100.00;99279.20;1644531;86;21617;-59
2022/09/14 00:03:58;;;;;;;9.33;8.07;;;;;;;10.72;100.00;99288.92;1644177;86;21733;-59
2022/09/14 00:06:25;;;;;;;9.63;7.57;;;;;;;10.70;100.00;99290.41;1640549;86;21727;-59
2022/09/14 00:08:54;;;;;;;9.30;6.73;;;;;;;10.59;100.00;99302.00;1640357;87;21582;-61
2022/09/14 00:11:22;;;;;;;8.17;7.20;;;;;;;10.64;100.00;99302.16;1640786;87;21775;-60
2022/09/14 00:13:50;;;;;;;9.73;8.10;;;;;;;10.63;100.00;99304.48;1640900;87;21693;-59
2022/09/14 00:16:23;;;;;;;8.97;7.60;;;;;;;10.60;100.00;99299.17;1640800;87;21695;-59
2022/09/14 00:18:56;;;;;;;9.90;7.50;;;;;;;10.57;100.00;99298.78;1640377;86;21754;-65
2022/09/14 00:21:23;;;;;;;9.23;7.77;;;;;;;10.38;100.00;99299.97;1639796;87;21750;-60
2022/09/14 00:23:50;;;;;;;11.10;6.73;;;;;;;10.33;100.00;99303.67;1640793;86;21727;-56
2022/09/14 00:26:20;;;;;;;9.00;8.10;;;;;;;10.23;100.00;99313.20;1640833;87;21801;-59
2022/09/14 00:28:54;;;;;;;9.87;8.63;;;;;;;10.23;100.00;99313.20;1640546;87;21812;-69
2022/09/14 00:31:21;;;;;;;9.00;7.53;;;;;;;10.26;100.00;99313.30;1640743;87;21768;-60
2022/09/14 00:33:49;;;;;;;9.77;7.83;;;;;;;10.18;100.00;99316.89;1640776;87;21721;-60
2022/09/14 00:36:20;;;;;;;8.27;7.13;;;;;;;10.33;100.00;99311.48;1640742;87;21507;-59
2022/09/14 00:38:47;;;;;;;8.58;7.67;;;;;;;10.30;100.00;99312.39;1639186;87;21477;-62
2022/09/14 00:41:18;;;;;;;9.60;7.80;;;;;;;10.20;100.00;99314.10;1640280;87;21518;-59
2022/09/14 00:44:08;;;;;;;9.18;8.23;;;;;;;10.25;100.00;99313.01;1640839;87;28760;-61
2022/09/14 00:46:44;;;;;;;8.10;7.27;;;;;;;10.26;100.00;99316.41;1640638;87;20981;-61
2022/09/14 00:49:28;;;;;;;8.20;7.30;;;;;;;10.20;100.00;99320.61;1641164;87;21831;-59
2022/09/14 00:52:02;;;;;;;8.37;7.47;;;;;;;10.30;100.00;99318.91;1641246;87;21442;-66
2022/09/14 00:54:30;;;;;;;8.40;7.33;;;;;;;10.22;100.00;99327.70;1641357;87;22581;-59
2022/09/14 00:56:58;;;;;;;9.80;7.73;;;;;;;10.26;100.00;99321.11;1641126;87;21796;-58
2022/09/14 00:59:27;;;;;;;10.13;8.13;;;;;;;10.30;100.00;99313.19;1641590;87;21774;-58
2022/09/14 01:01:54;;;;;;;10.23;8.53;;;;;;;10.30;100.00;99313.19;1641344;87;21449;-58
2022/09/14 01:04:22;;;;;;;10.10;8.27;;;;;;;10.17;100.00;99310.09;1643445;86;21633;-60
2022/09/14 01:07:29;;;;;;;8.80;7.63;;;;;;;10.10;100.00;99311.90;1650073;86;21500;-59
2022/09/14 01:10:14;;;;;;;8.63;7.60;;;;;;;10.16;100.00;99301.19;1649800;86;22193;-58
2022/09/14 01:12:47;;;;;;;11.17;8.37;;;;;;;10.18;100.00;99303.08;1650579;86;21676;-58
2022/09/14 01:15:46;;;;;;;9.40;8.40;;;;;;;10.18;100.00;99303.08;1602023;86;21768;-67
2022/09/14 01:18:26;;;;;;;8.90;8.00;;;;;;;10.14;100.00;99302.67;1650406;86;21675;-59
2022/09/14 01:21:16;;;;;;;9.37;7.23;;;;;;;10.15;100.00;99306.91;1650093;86;21773;-68
2022/09/14 01:24:14;;;;;;;10.43;7.53;;;;;;;10.06;100.00;99320.33;1650608;86;21747;-58
2022/09/14 01:27:10;;;;;;;9.87;8.27;;;;;;;10.06;100.00;99320.33;1650484;86;22116;-58
2022/09/14 01:29:44;;;;;;;9.57;8.57;;;;;;;10.04;100.00;99319.23;1633490;86;21466;-59
2022/09/14 01:32:19;;;;;;;9.90;8.67;;;;;;;9.99;100.00;99317.72;1650051;86;21506;-58
2022/09/14 01:34:54;;;;;;;8.60;7.70;;;;;;;9.87;100.00;99320.14;1650314;86;21360;-58
2022/09/14 01:37:32;;;;;;;10.33;7.37;;;;;;;9.87;100.00;99320.14;1643607;86;21733;-58
2022/09/14 01:40:05;;;;;;;9.93;8.50;;;;;;;9.87;100.00;99335.75;1650237;85;21855;-58
2022/09/14 01:42:33;;;;;;;10.17;9.03;;;;;;;10.05;100.00;99322.64;1650320;86;21381;-57
2022/09/14 01:45:02;;;;;;;10.43;9.30;;;;;;;10.13;100.00;99325.03;1650110;86;21591;-57
2022/09/14 01:47:46;;;;;;;10.20;8.80;;;;;;;10.13;100.00;99325.03;1649565;86;21488;-61
2022/09/14 01:50:23;;;;;;;11.30;7.93;;;;;;;10.58;100.00;99322.55;1647786;86;22546;-58
2022/09/14 01:52:58;;;;;;;11.23;9.47;;;;;;;10.58;100.00;99322.55;1649326;86;21557;-63
2022/09/14 01:55:31;;;;;;;11.40;8.07;;;;;;;10.60;100.00;99317.41;1649620;86;22312;-60
2022/09/14 01:58:27;;;;;;;9.73;8.03;;;;;;;10.59;100.00;99326.75;1650323;85;21743;-58
2022/09/14 02:00:55;;;;;;;10.37;9.00;;;;;;;10.63;100.00;99322.22;1650709;86;21652;-58
2022/09/14 02:03:29;;;;;;;10.40;9.27;;;;;;;10.66;100.00;99330.14;1650596;86;21707;-58
2022/09/14 02:06:13;;;;;;;12.13;9.40;;;;;;;10.78;100.00;99331.09;1642361;86;21668;-58
2022/09/14 02:08:40;;;;;;;9.73;8.73;;;;;;;10.95;100.00;99327.02;1641381;87;21787;-59
2022/09/14 02:11:07;;;;;;;9.57;8.57;;;;;;;11.13;100.00;99327.60;1641294;87;21715;-57
2022/09/14 02:13:35;;;;;;;10.20;9.10;;;;;;;11.23;100.00;99325.06;1641519;87;22259;-57
2022/09/14 02:16:02;;;;;;;9.37;8.33;;;;;;;11.28;100.00;99327.32;1641437;87;21677;-56
2022/09/14 02:18:30;;;;;;;9.53;8.23;;;;;;;11.36;100.00;99328.37;1640843;86;21787;-57
2022/09/14 02:21:17;;;;;;;10.07;9.00;;;;;;;11.45;100.00;99321.91;1641708;87;21530;-56
2022/09/14 02:23:46;;;;;;;9.03;8.13;;;;;;;11.37;100.00;99321.37;1641370;87;21708;-59
2022/09/14 02:26:13;;;;;;;9.57;8.57;;;;;;;11.17;100.00;99322.77;1622137;87;22167;-61
2022/09/14 02:28:40;;;;;;;13.47;8.30;;;;;;;11.16;100.00;99327.19;1641561;87;21108;-59
2022/09/14 02:31:45;;;;;;;9.80;8.57;;;;;;;11.19;100.00;99326.78;1641452;87;21712;-59
2022/09/14 02:34:37;;;;;;;10.23;8.80;;;;;;;11.31;100.00;99316.98;1640976;87;21759;-59
2022/09/14 02:37:18;;;;;;;10.63;9.53;;;;;;;11.33;100.00;99320.19;1640576;87;20973;-60
2022/09/14 02:40:13;;;;;;;10.38;9.23;;;;;;;11.24;100.00;99327.45;1641665;87;21669;-62
2022/09/14 02:43:38;;;;;;;9.33;8.33;;;;;;;11.56;100.00;99328.77;1601754;87;21069;-58
2022/09/14 02:46:28;;;;;;;9.97;8.30;;;;;;;11.54;100.00;99333.38;1640871;87;21858;-58
2022/09/14 02:49:08;;;;;;;11.27;8.57;;;;;;;11.56;100.00;99330.07;1602669;87;21735;-58
2022/09/14 02:52:07;;;;;;;11.12;9.80;;;;;;;11.71;100.00;99333.68;1620149;86;23162;-59
2022/09/14 02:54:40;;;;;;;10.83;9.63;;;;;;;11.85;100.00;99335.18;1641167;87;21034;-61
2022/09/14 02:57:07;;;;;;;11.87;8.87;;;;;;;11.79;100.00;99336.81;1640466;87;21745;-59
2022/09/14 02:59:35;;;;;;;9.67;8.67;;;;;;;11.90;100.00;99339.27;1641268;87;21974;-59
2022/09/14 03:02:03;;;;;;;10.70;9.60;;;;;;;11.90;100.00;99339.27;1641034;87;21213;-59
2022/09/14 03:04:30;;;;;;;10.47;9.03;;;;;;;11.88;100.00;99341.28;1641528;87;21037;-58
2022/09/14 03:06:58;;;;;;;11.03;9.43;;;;;;;11.88;100.00;99347.30;1644457;87;21057;-69
2022/09/14 03:09:25;;;;;;;9.83;8.70;;;;;;;11.90;100.00;99352.33;1645064;87;22605;-58
2022/09/14 03:11:52;;;;;;;10.37;9.27;;;;;;;11.87;100.00;99351.45;1645093;87;21645;-58
2022/09/14 03:14:19;;;;;;;11.50;10.30;;;;;;;11.92;100.00;99345.86;1644943;87;21272;-58
2022/09/14 03:16:47;;;;;;;11.27;9.97;;;;;;;11.91;100.00;99345.58;1621978;88;21692;-68
2022/09/14 03:19:14;;;;;;;13.03;10.10;;;;;;;11.93;100.00;99342.26;1644608;87;21030;-68
2022/09/14 03:21:41;;;;;;;10.10;9.10;;;;;;;12.02;100.00;99345.39;1622371;88;21414;-58
2022/09/14 03:24:10;;;;;;;10.93;9.73;;;;;;;12.05;100.00;99349.40;1645058;87;21025;-58
2022/09/14 03:26:38;;;;;;;10.53;9.10;;;;;;;12.22;100.00;99350.94;1645109;87;21162;-57
2022/09/14 03:29:05;;;;;;;10.50;9.30;;;;;;;12.31;100.00;99353.07;1644571;87;21014;-65
2022/09/14 03:31:32;;;;;;;11.20;9.83;;;;;;;12.28;100.00;99354.80;1644562;87;21048;-58
2022/09/14 03:34:00;;;;;;;10.80;9.70;;;;;;;12.27;100.00;99354.48;1644799;85;21537;-57
2022/09/14 03:36:29;;;;;;;13.47;10.97;;;;;;;12.35;100.00;99361.25;1644348;87;21563;-57
2022/09/14 03:38:57;;;;;;;13.90;11.50;;;;;;;12.50;100.00;99357.80;1621775;88;21503;-61
2022/09/14 03:41:24;;;;;;;13.63;11.00;;;;;;;12.56;100.00;99356.12;1644386;87;22229;-58
2022/09/14 03:43:52;;;;;;;16.40;12.53;;;;;;;12.52;100.00;99356.27;1622642;88;21815;-58
2022/09/14 03:46:21;;;;;;;14.63;12.73;;;;;;;12.59;100.00;99353.87;1644853;87;21002;-58
2022/09/14 03:48:48;;;;;;;15.13;12.40;;;;;;;12.66;100.00;99352.50;1622582;88;20973;-59
2022/09/14 03:51:16;;;;;;;16.00;12.77;;;;;;;12.83;100.00;99356.10;1644053;87;21157;-61
2022/09/14 03:53:44;;;;;;;16.80;13.30;;;;;;;12.91;100.00;99354.48;1622681;88;21270;-58
2022/09/14 03:56:14;;;;;;;18.40;13.80;;;;;;;13.00;100.00;99348.98;1645595;87;21103;-58
2022/09/14 03:58:41;;;;;;;18.23;13.87;;;;;;;13.11;100.00;99349.03;1622683;88;21037;-60
2022/09/14 04:01:13;;;;;;;19.63;14.67;;;;;;;13.21;100.00;99352.41;1644807;87;21604;-69
2022/09/14 04:03:40;;;;;;;18.60;12.80;;;;;;;13.25;100.00;99352.28;1622559;88;22188;-58
2022/09/14 04:06:09;;;;;;;19.43;12.77;;;;;;;13.12;100.00;99356.36;1645190;85;21500;-58
2022/09/14 04:08:39;;;;;;;15.23;11.50;;;;;;;12.98;100.00;99366.19;1622108;88;21032;-62
2022/09/14 04:11:13;;;;;;;;;;;;;;;13.19;100.00;99364.92;1620573;87;21020;-65
2022/09/14 04:13:41;;;;;;;19.20;13.53;;;;;;;13.40;100.00;99362.34;1618971;87;20206;-60
2022/09/14 04:16:08;;;;;;;16.67;13.00;;;;;;;13.39;100.00;99359.45;1596802;89;21279;-61
2022/09/14 04:18:36;;;;;;;17.10;12.97;;;;;;;13.44;100.00;99364.00;1618231;88;20982;-70
2022/09/14 04:21:07;;;;;;;16.10;12.00;;;;;;;13.49;100.00;99371.50;1596108;89;20934;-58
2022/09/14 04:23:35;;;;;;;16.10;13.17;;;;;;;13.35;100.00;99364.33;1617029;87;21528;-58
2022/09/14 04:26:11;;;;;;;15.63;12.43;;;;;;;13.36;100.00;99371.15;1596873;89;21025;-58
2022/09/14 04:28:38;;;;;;;16.83;13.33;;;;;;;13.38;100.00;99373.05;1597097;88;21318;-58
2022/09/14 04:31:05;;;;;;;15.60;12.17;;;;;;;13.38;100.00;99373.05;1617905;88;21068;-58
2022/09/14 04:33:34;;;;;;;13.60;10.47;;;;;;;13.22;100.00;99378.88;1618552;88;22085;-59
2022/09/14 04:36:06;;;;;;;14.57;11.33;;;;;;;13.12;100.00;99378.60;1596642;89;21586;-60
2022/09/14 04:38:34;;;;;;;12.80;10.03;;;;;;;13.16;100.00;99386.30;1617878;88;21017;-59
2022/09/14 04:41:04;;;;;;;12.20;10.57;;;;;;;13.20;100.00;99379.60;1596053;89;21500;-60
2022/09/14 04:43:31;;;;;;;12.03;8.80;;;;;;;13.38;100.00;99384.03;1618453;88;21717;-57
2022/09/14 04:46:06;;;;;;;8.80;7.23;;;;;;;13.40;100.00;99383.28;1618681;87;20957;-58
2022/09/14 04:48:34;;;;;;;7.03;5.27;;;;;;;13.30;100.00;99383.84;1617960;88;21030;-67
2022/09/14 04:51:08;;;;;;;6.20;4.80;;;;;;;13.29;100.00;99386.14;1618817;88;21082;-58
2022/09/14 04:53:37;;;;;;;5.83;4.30;;;;;;;13.42;100.00;99387.80;1618368;87;21225;-59
2022/09/14 04:56:06;;;;;;;5.07;4.17;;;;;;;13.55;100.00;99388.91;1617974;88;21551;-65
2022/09/14 04:58:34;;;;;;;5.23;3.97;;;;;;;13.45;100.00;99387.84;1618666;88;21641;-65
2022/09/14 05:01:10;;;;;;;5.57;3.77;;;;;;;13.18;100.00;99383.45;1618274;88;21954;-59
2022/09/14 05:03:40;;;;;;;5.00;3.53;;;;;;;13.82;100.00;99388.00;1618458;88;21078;-58
2022/09/14 05:06:11;;;;;;;4.27;3.20;;;;;;;13.69;100.00;99390.84;1618589;87;21470;-58
2022/09/14 05:08:40;;;;;;;5.03;2.63;;;;;;;13.98;100.00;99389.67;1618038;88;20961;-59
2022/09/14 05:11:08;;;;;;;3.73;2.43;;;;;;;14.06;100.00;99395.41;1618233;88;21421;-58
2022/09/14 05:13:35;;;;;;;3.57;2.70;;;;;;;14.11;100.00;99397.33;1618634;88;21113;-66
2022/09/14 05:16:17;;;;;;;4.03;2.80;;;;;;;14.15;100.00;99393.23;1618088;87;21499;-59
2022/09/14 05:18:45;;;;;;;3.33;2.23;;;;;;;14.31;100.00;99397.78;1618852;87;21282;-58
2022/09/14 05:21:15;;;;;;;4.10;2.47;;;;;;;14.34;100.00;99399.95;1619074;87;21551;-58
2022/09/14 05:23:43;;;;;;;3.77;2.77;;;;;;;14.38;100.00;99402.12;1618629;87;20954;-58
2022/09/14 05:26:10;;;;;;;3.73;2.40;;;;;;;14.42;100.00;99409.82;1618250;87;21883;-59
2022/09/14 05:28:37;;;;;;;3.17;1.70;;;;;;;14.33;100.00;99412.79;1618468;87;21573;-59
2022/09/14 05:31:10;;;;;;;2.50;1.60;;;;;;;14.24;100.00;99415.96;1619038;87;21213;-58
2022/09/14 05:33:37;;;;;;;2.00;1.20;;;;;;;14.28;100.00;99421.03;1618339;87;20981;-58
2022/09/14 05:36:06;;;;;;;1.60;0.80;;;;;;;14.29;100.00;99420.83;1618839;87;21025;-61
2022/09/14 05:38:35;;;;;;;2.33;1.17;;;;;;;14.22;100.00;99424.06;1619143;87;21082;-60
2022/09/14 05:41:04;;;;;;;2.07;1.00;;;;;;;14.15;100.00;99427.30;1618269;87;46240;-58
2022/09/14 05:43:31;;;;;;;1.87;1.17;;;;;;;14.18;100.00;99432.10;1618374;87;21692;-58
2022/09/14 05:46:04;;;;;;;2.27;1.17;;;;;;;14.24;100.00;99431.17;1618733;87;21547;-64
2022/09/14 05:48:32;;;;;;;2.47;1.30;;;;;;;14.12;100.00;99438.23;1618236;88;21112;-58
2022/09/14 05:51:06;;;;;;;3.53;1.60;;;;;;;14.11;100.00;99440.06;1618360;88;21811;-64
2022/09/14 05:53:34;;;;;;;2.97;1.60;;;;;;;14.10;100.00;99445.54;1618183;87;21946;-58
2022/09/14 05:56:06;;;;;;;5.13;2.20;;;;;;;14.07;100.00;99444.67;1618362;88;22329;-65
2022/09/14 05:58:35;;;;;;;2.93;2.03;;;;;;;14.03;100.00;99445.64;1618231;88;21149;-58
2022/09/14 06:01:10;;;;;;;3.70;2.50;;;;;;;14.07;100.00;99445.98;1617956;88;20942;-58
2022/09/14 06:03:37;;;;;;;3.33;2.40;;;;;;;14.10;100.00;99448.16;1618443;88;21101;-58
2022/09/14 06:06:06;;;;;;;3.77;2.70;;;;;;;14.15;100.00;99458.75;1619876;88;21599;-59
2022/09/14 06:08:33;;;;;;;4.87;2.80;;;;;;;14.25;100.00;99452.97;1623535;86;21522;-58
2022/09/14 06:11:07;;;;;;;4.00;3.33;;;;;;;14.38;100.00;99452.73;1622889;88;21081;-66
2022/09/14 06:13:36;;;;;;;3.90;2.90;;;;;;;14.42;100.00;99448.63;1623667;88;21642;-58
2022/09/14 06:16:06;;;;;;;3.90;3.07;;;;;;;14.51;100.00;99453.08;1622903;88;21160;-65
2022/09/14 06:18:34;;;;;;;5.63;3.20;;;;;;;14.59;100.00;99456.66;1623213;88;21874;-58
2022/09/14 06:21:02;;;;;;;4.63;3.60;;;;;;;14.59;100.00;99460.08;1623043;88;21123;-59
2022/09/14 06:23:30;;;;;;;3.90;2.93;;;;;;;14.63;100.00;99463.56;1623666;88;22012;-59
2022/09/14 06:25:59;;;;;;;4.83;3.93;;;;;;;14.64;100.00;99468.56;1623026;88;21605;-65
2022/09/14 06:28:27;;;;;;;4.90;3.70;;;;;;;14.74;100.00;99468.80;1623510;88;21466;-58
2022/09/14 06:30:54;;;;;;;5.27;3.63;;;;;;;14.84;100.00;99466.38;1623361;88;21048;-59
2022/09/14 06:33:22;;;;;;;5.00;4.10;;;;;;;15.08;100.00;99467.67;1623472;86;21397;-58
2022/09/14 06:36:08;;;;;;;4.53;3.57;;;;;;;15.25;100.00;99467.73;1622918;88;21037;-60
2022/09/14 06:38:33;;;;;;;5.80;4.33;;;;;;;15.45;100.00;99470.74;1622882;88;21088;-68
2022/09/14 06:41:04;;;;;;;4.90;4.20;;;;;;;15.46;100.00;99474.98;1623505;88;21382;-60
2022/09/14 06:43:32;;;;;;;4.87;4.17;;;;;;;15.62;100.00;99473.95;1623582;88;21082;-59
2022/09/14 06:46:03;;;;;;;5.43;4.53;;;;;;;15.66;100.00;99464.60;1623035;88;21893;-58
2022/09/14 06:48:33;;;;;;;4.83;3.83;;;;;;;15.74;100.00;99467.64;1622990;86;21522;-60
2022/09/14 06:51:00;;;;;;;6.00;5.13;;;;;;;15.80;100.00;99470.65;1623914;88;22084;-59
2022/09/14 06:53:27;;;;;;;5.53;4.17;;;;;;;15.91;100.00;99468.17;1605177;88;21522;-59
2022/09/14 06:55:58;;;;;;;4.87;4.27;;;;;;;15.94;100.00;99469.81;1623049;88;20985;-59
2022/09/14 06:58:25;;;;;;;4.93;4.20;;;;;;;15.93;100.00;99467.44;1600623;86;21814;-60
2022/09/14 07:00:52;;;;;;;5.37;4.40;;;;;;;16.04;100.00;99465.26;1623551;88;21483;-58
2022/09/14 07:03:19;;;;;;;4.50;4.03;;;;;;;16.05;100.00;99470.78;1623447;88;21029;-58
2022/09/14 07:05:46;;;;;;;5.97;4.20;;;;;;;16.23;100.00;99468.45;1622380;88;20910;-69
2022/09/14 07:08:13;;;;;;;5.60;4.53;;;;;;;16.50;100.00;99462.02;1614097;87;21552;-60
2022/09/14 07:10:43;;;;;;;4.67;3.87;;;;;;;16.76;100.00;99464.00;1614356;88;21851;-59
2022/09/14 07:13:10;;;;;;;4.30;3.57;;;;;;;17.10;100.00;99467.06;1614638;87;21053;-59
2022/09/14 07:15:37;;;;;;;4.70;4.20;;;;;;;17.30;100.00;99459.39;1614568;88;21053;-62
2022/09/14 07:18:04;;;;;;;4.30;3.17;;;;;;;17.51;100.00;99459.89;1614196;88;21463;-59
2022/09/14 07:20:33;;;;;;;3.33;2.70;;;;;;;17.58;100.00;99461.52;1613732;87;21042;-60
2022/09/14 07:23:00;;;;;;;3.63;2.50;;;;;;;17.69;100.00;99460.08;1614489;87;22116;-58
2022/09/14 07:25:27;;;;;;;3.37;2.83;;;;;;;17.67;100.00;99459.52;1614231;88;21112;-59
2022/09/14 07:27:55;;;;;;;4.57;3.23;;;;;;;17.59;100.00;99462.61;1613931;88;21045;-59
2022/09/14 07:30:23;;;;;;;4.40;3.20;;;;;;;17.49;100.00;99470.40;1614167;88;21100;-59
2022/09/14 07:32:50;;;;;;;4.40;3.40;;;;;;;17.55;100.00;99459.41;1613917;88;21013;-58
2022/09/14 07:35:18;;;;;;;4.30;2.87;;;;;;;17.43;100.00;99467.45;1614426;88;21227;-58
2022/09/14 07:37:45;;;;;;;3.63;3.03;;;;;;;17.46;100.00;99468.25;1613847;88;21081;-61
2022/09/14 07:40:12;;;;;;;3.80;3.00;;;;;;;17.63;100.00;99458.42;1614397;87;22030;-57
2022/09/14 07:42:40;;;;;;;3.60;2.90;;;;;;;17.72;100.00;99454.81;1613899;88;21045;-59
2022/09/14 07:45:08;;;;;;;3.50;2.40;;;;;;;17.95;100.00;99451.09;1614284;88;21096;-58
2022/09/14 07:47:35;;;;;;;3.70;2.70;;;;;;;18.01;100.00;99455.91;1614418;88;21244;-58
2022/09/14 07:50:03;;;;;;;3.93;2.67;;;;;;;18.03;100.00;99461.17;1613556;88;21539;-59
2022/09/14 07:52:31;;;;;;;3.10;2.30;;;;;;;18.07;100.00;99467.57;1614130;88;22508;-58
2022/09/14 07:54:58;;;;;;;3.43;2.43;;;;;;;18.20;100.00;99463.70;1614086;88;21577;-58
2022/09/14 07:57:26;;;;;;;4.03;2.53;;;;;;;18.17;100.00;99464.20;1614554;87;21093;-58
2022/09/14 07:59:53;;;;;;;4.03;2.60;;;;;;;18.24;100.00;99466.90;1596752;88;21327;-61
2022/09/14 08:02:22;;;;;;;2.97;2.13;;;;;;;18.32;100.00;99473.55;1613698;88;21033;-59
2022/09/14 08:04:50;;;;;;;2.97;2.30;;;;;;;18.19;100.00;99477.42;1615113;88;21025;-58
2022/09/14 08:07:17;;;;;;;3.20;2.40;;;;;;;18.05;100.00;99472.28;1614431;88;20906;-57
2022/09/14 08:09:44;;;;;;;3.57;2.83;;;;;;;17.98;100.00;99478.28;1614291;88;21077;-63
2022/09/14 08:12:11;;;;;;;4.23;3.20;;;;;;;17.75;100.00;99484.14;1613999;88;22295;-58
2022/09/14 08:14:39;;;;;;;4.30;3.00;;;;;;;17.55;100.00;99480.48;1614449;88;22128;-58
2022/09/14 08:17:06;;;;;;;4.47;3.20;;;;;;;17.20;100.00;99490.37;1614627;88;21488;-58
2022/09/14 08:19:34;;;;;;;4.50;3.20;;;;;;;17.25;100.00;99490.42;1614395;87;21040;-58
2022/09/14 08:22:01;;;;;;;3.50;2.40;;;;;;;17.11;100.00;99491.82;1613750;88;21155;-58
2022/09/14 08:24:29;;;;;;;3.30;2.40;;;;;;;16.97;100.00;99490.58;1613734;88;22469;-60
2022/09/14 08:26:56;;;;;;;3.57;2.83;;;;;;;16.81;100.00;99490.11;1614348;88;21683;-57
2022/09/14 08:29:23;;;;;;;4.67;3.37;;;;;;;16.51;100.00;99495.17;1614397;88;21104;-57
2022/09/14 08:31:50;;;;;;;3.53;2.70;;;;;;;16.39;100.00;99495.26;1614306;88;21171;-60
2022/09/14 08:34:18;;;;;;;4.73;3.70;;;;;;;16.27;100.00;99495.34;1614065;88;21034;-68
2022/09/14 08:36:46;;;;;;;6.23;4.37;;;;;;;16.12;100.00;99499.04;1614459;88;22145;-57
2022/09/14 08:39:14;;;;;;;5.03;3.63;;;;;;;15.95;100.00;99495.61;1614402;88;21567;-57
2022/09/14 08:41:46;;;;;;;4.57;3.20;;;;;;;15.84;100.00;99498.56;1614199;88;21068;-57
2022/09/14 08:44:32;;;;;;;4.47;3.40;;;;;;;15.93;100.00;99500.29;1613494;88;21555;-64
2022/09/14 08:47:18;;;;;;;3.57;2.90;;;;;;;15.94;100.00;99493.98;1613736;88;21069;-59
2022/09/14 08:50:13;;;;;;;4.30;2.57;;;;;;;16.07;100.00;99496.33;1613942;88;22306;-62
2022/09/14 08:52:48;;;;;;;4.80;3.10;;;;;;;16.18;100.00;99503.36;1614863;88;21575;-60
2022/09/14 08:55:34;;;;;;;5.63;3.40;;;;;;;16.05;100.00;99515.47;1614195;88;21081;-68
2022/09/14 08:58:34;;;;;;;5.27;3.50;;;;;;;16.07;100.00;99519.99;1615275;88;21045;-57
2022/09/14 09:01:35;;;;;;;3.70;2.87;;;;;;;16.10;100.00;99524.78;1615105;88;21462;-57
2022/09/14 09:04:22;;;;;;;4.33;3.03;;;;;;;15.95;100.00;99520.58;1613990;88;21096;-68
2022/09/14 09:07:06;;;;;;;4.00;2.63;;;;;;;15.87;100.00;99527.50;1551862;88;21554;-62
2022/09/14 09:09:49;;;;;;;3.40;2.17;;;;;;;15.69;100.00;99538.50;1612629;88;20887;-65
2022/09/14 09:12:25;;;;;;;3.70;2.20;;;;;;;15.54;100.00;99540.80;1614880;88;21113;-59
2022/09/14 09:15:00;;;;;;;3.30;1.70;;;;;;;15.39;100.00;99535.24;1611891;87;21030;-59
2022/09/14 09:17:39;;;;;;;2.97;2.00;;;;;;;15.23;100.00;99538.88;1614420;87;22379;-59
2022/09/14 09:20:32;;;;;;;2.93;2.13;;;;;;;15.13;100.00;99545.72;1593804;89;21498;-59
2022/09/14 09:23:11;;;;;;;4.03;2.00;;;;;;;15.03;100.00;99546.29;1614579;88;21905;-59
2022/09/14 09:26:02;;;;;;;2.80;1.90;;;;;;;15.00;100.00;99542.80;1611511;88;21049;-59
2022/09/14 09:28:29;;;;;;;2.60;1.90;;;;;;;15.18;100.00;99549.24;1614688;88;21104;-60
2022/09/14 09:31:05;;;;;;;3.20;1.87;;;;;;;15.75;100.00;99540.69;1596760;88;21041;-60
2022/09/14 09:33:37;;;;;;;2.90;2.20;;;;;;;16.51;100.00;99543.32;1596936;88;20965;-60
2022/09/14 09:36:13;;;;;;;2.50;1.60;;;;;;;17.22;100.00;99550.17;1614357;87;21017;-60
2022/09/14 09:38:41;;;;;;;2.70;1.63;;;;;;;17.70;100.00;99550.48;1597237;88;21587;-58
2022/09/14 09:41:25;;;;;;;2.43;1.60;;;;;;;18.18;100.00;99541.78;1614633;87;20942;-60
2022/09/14 09:44:08;;;;;;;1.97;1.37;;;;;;;18.79;100.00;99538.84;1597658;88;21713;-57
2022/09/14 09:46:52;;;;;;;3.03;1.03;;;;;;;19.53;100.00;99539.20;1614882;88;21486;-58
2022/09/14 09:49:38;;;;;;;2.87;1.50;;;;;;;19.94;100.00;99539.34;1613773;88;21029;-58
2022/09/14 09:52:13;;;;;;;2.20;1.47;;;;;;;20.12;100.00;99540.70;1614817;88;21006;-60
2022/09/14 09:54:51;;;;;;;2.30;1.30;;;;;;;20.03;100.00;99546.22;1615076;87;21042;-68
2022/09/14 09:57:30;;;;;;;2.43;1.53;;;;;;;20.11;100.00;99549.13;1614777;88;21849;-58
2022/09/14 10:00:23;;;;;;;3.47;1.60;;;;;;;19.97;100.00;99549.41;1614449;88;21010;-59
2022/09/14 10:02:52;;;;;;;2.53;1.53;;;;;;;19.92;100.00;99546.73;1614284;87;21025;-58
2022/09/14 10:05:33;;;;;;;3.07;1.60;;;;;;;19.66;100.00;99547.19;1614702;88;21558;-58
2022/09/14 10:08:04;;;;;;;3.05;1.75;;;;;;;19.32;100.00;99544.13;1613944;87;21163;-68
2022/09/14 10:10:41;;;;;;;3.52;1.82;;;;;;;19.09;100.00;99541.38;1614842;87;21613;-59
2022/09/14 10:13:30;;;;;;;2.40;1.47;;;;;;;18.89;100.00;99538.09;1617262;88;21521;-60
2022/09/14 10:16:17;;;;;;;2.43;1.57;;;;;;;18.61;100.00;99542.65;1615963;88;20890;-59
2022/09/14 10:18:47;;;;;;;2.63;1.53;;;;;;;18.47;100.00;99534.35;1614640;88;21587;-58
2022/09/14 10:21:16;;;;;;;3.17;1.80;;;;;;;18.22;100.00;99547.33;1614246;88;21082;-67
2022/09/14 10:23:43;;;;;;;2.43;1.60;;;;;;;17.96;100.00;99546.31;1613817;88;21399;-60
2022/09/14 10:26:20;;;;;;;2.80;1.70;;;;;;;17.75;100.00;99559.80;1614223;88;21401;-59
2022/09/14 10:28:48;;;;;;;3.23;1.67;;;;;;;17.68;100.00;99557.83;1614392;88;21022;-58
2022/09/14 10:31:24;;;;;;;2.83;1.80;;;;;;;17.54;100.00;99559.24;1613949;88;20978;-63
2022/09/14 10:33:57;;;;;;;3.47;2.07;;;;;;;17.51;100.00;99553.97;1614272;88;21101;-58
2022/09/14 10:36:31;;;;;;;4.70;1.70;;;;;;;17.59;100.00;99556.69;1614510;88;21563;-58
2022/09/14 10:39:14;;;;;;;1.90;1.43;;;;;;;17.79;100.00;99561.41;1613592;87;21112;-64
2022/09/14 10:42:02;;;;;;;2.50;1.90;;;;;;;17.95;100.00;99563.16;1614378;88;21141;-59
2022/09/14 10:44:47;;;;;;;3.30;2.00;;;;;;;18.00;100.00;99560.59;1614059;88;21005;-59
2022/09/14 10:47:35;;;;;;;3.03;2.10;;;;;;;18.09;100.00;99557.77;1613972;87;21486;-58
2022/09/14 10:50:44;;;;;;;3.13;2.10;;;;;;;18.03;100.00;99561.39;1613859;87;21149;-57
2022/09/14 10:53:30;;;;;;;3.67;2.10;;;;;;;18.13;100.00;99562.03;1614460;88;21038;-66
2022/09/14 10:56:20;;;;;;;3.07;1.80;;;;;;;18.12;100.00;99567.83;1613703;88;21382;-57
2022/09/14 10:59:20;;;;;;;3.17;2.10;;;;;;;18.20;100.00;99555.50;1614387;88;21082;-65
2022/09/14 11:02:24;;;;;;;4.43;1.73;;;;;;;18.24;100.00;99561.08;1678569;85;21464;-57
2022/09/14 11:04:57;;;;;;;2.30;1.80;;;;;;;18.16;100.00;99561.01;1677814;84;21131;-58
2022/09/14 11:07:41;;;;;;;3.33;1.60;;;;;;;17.98;100.00;99567.94;1678510;85;20996;-58
2022/09/14 11:10:18;;;;;;;2.30;1.23;;;;;;;17.94;100.00;99562.89;1677899;85;21068;-58
2022/09/14 11:13:31;;;;;;;2.40;1.60;;;;;;;17.79;100.00;99571.96;1678309;84;21003;-58
2022/09/14 11:16:43;;;;;;;2.70;1.27;;;;;;;17.60;100.00;99574.87;1677656;85;21557;-58
2022/09/14 11:19:41;;;;;;;2.27;1.23;;;;;;;17.35;100.00;99579.33;1678581;85;21273;-60
2022/09/14 11:22:26;;;;;;;2.83;1.60;;;;;;;17.15;100.00;99579.03;1678513;85;21019;-60
2022/09/14 11:25:23;;;;;;;3.60;1.97;;;;;;;16.96;100.00;99580.62;1651788;85;21074;-57
2022/09/14 11:27:56;;;;;;;3.00;1.63;;;;;;;16.95;100.00;99569.02;1677600;84;21044;-63
2022/09/14 11:30:40;;;;;;;2.60;1.47;;;;;;;16.89;100.00;99573.92;1677882;84;21223;-57
2022/09/14 11:33:36;;;;;;;2.10;1.40;;;;;;;16.97;100.00;99570.38;1678592;85;21147;-57
2022/09/14 11:36:32;;;;;;;4.07;1.80;;;;;;;16.96;100.00;99579.30;1651360;86;21344;-57
2022/09/14 11:39:07;;;;;;;3.33;1.77;;;;;;;16.99;100.00;99572.77;1675743;85;20972;-64
2022/09/14 11:41:42;;;;;;;3.73;2.27;;;;;;;16.91;100.00;99581.08;1704917;83;21040;-58
2022/09/14 11:44:17;;;;;;;4.83;1.90;;;;;;;16.87;100.00;99574.70;1679007;85;20972;-56
2022/09/14 11:47:11;;;;;;;2.80;1.70;;;;;;;16.79;100.00;99581.16;1677782;84;21126;-64
2022/09/14 11:49:59;;;;;;;2.97;2.07;;;;;;;16.84;100.00;99585.18;1678415;84;20984;-57
2022/09/14 11:52:31;;;;;;;3.50;2.37;;;;;;;16.92;100.00;99580.03;1678619;84;21639;-56
2022/09/14 11:54:58;;;;;;;;;;;;;;;17.05;100.00;99587.61;1681143;85;21032;-58
2022/09/14 11:57:31;;;;;;;4.13;2.80;;;;;;;17.11;100.00;99584.52;1678434;85;20244;-57